Time;durP1;ratioP1;P1;durP2;ratioP2;P2;SDS_P1;SDS_P2;PMS_P1;PMS_P2;Temp;Humidity;BMP_temperature;BMP_pressure;BME280_temperature;BME280_humidity;BME280_pressure;Samples;Min_cycle;Max_cycle;Signal;HPM_P1;HPM_P2
2022/05/15 00:00:48;;;;;;;4.07;2.15;;;18.20;90.50;;;;;;1989476;28;20166;-71
2022/05/15 00:01:47;;;;;;;8.30;3.13;;;18.20;90.50;;;;;;1989450;28;20649;-73
2022/05/15 00:02:46;;;;;;;9.53;2.47;;;18.20;90.50;;;;;;1989436;28;20213;-71
2022/05/15 00:03:44;;;;;;;4.83;3.00;;;18.20;90.50;;;;;;1989527;28;20185;-71
2022/05/15 00:04:42;;;;;;;5.40;2.10;;;18.20;90.50;;;;;;1989455;28;20206;-73
2022/05/15 00:05:42;;;;;;;5.53;2.00;;;18.20;90.50;;;;;;1989462;28;20575;-71
2022/05/15 00:06:41;;;;;;;5.97;2.40;;;18.20;90.50;;;;;;1996315;28;20198;-71
2022/05/15 00:07:39;;;;;;;3.07;1.67;;;18.20;90.50;;;;;;1988782;28;20414;-71
2022/05/15 00:08:38;;;;;;;2.83;2.20;;;18.10;90.40;;;;;;1988956;28;20174;-71
2022/05/15 00:09:37;;;;;;;8.60;2.22;;;18.20;90.50;;;;;;1989236;28;20229;-71
2022/05/15 00:10:37;;;;;;;4.33;1.97;;;18.10;90.40;;;;;;1989422;28;20538;-71
2022/05/15 00:11:36;;;;;;;7.47;2.53;;;18.20;90.50;;;;;;1989341;28;20174;-72
2022/05/15 00:12:35;;;;;;;12.03;2.63;;;18.10;90.40;;;;;;1989334;28;20258;-71
2022/05/15 00:13:35;;;;;;;5.10;2.50;;;18.10;90.40;;;;;;1989322;28;20634;-70
2022/05/15 00:14:34;;;;;;;7.97;2.55;;;18.20;90.50;;;;;;1989320;28;20163;-71
2022/05/15 00:15:34;;;;;;;8.30;2.70;;;18.10;90.40;;;;;;1989287;28;20206;-71
2022/05/15 00:16:32;;;;;;;5.15;2.97;;;18.10;90.40;;;;;;1989124;28;20440;-71
2022/05/15 00:17:31;;;;;;;5.00;2.47;;;18.10;90.40;;;;;;1989148;28;20206;-71
2022/05/15 00:18:30;;;;;;;8.23;2.20;;;18.10;90.40;;;;;;1989254;28;20201;-71
2022/05/15 00:19:28;;;;;;;6.13;2.80;;;18.10;90.40;;;;;;1989222;28;20253;-71
2022/05/15 00:20:27;;;;;;;6.40;2.20;;;18.10;90.40;;;;;;1989277;28;20402;-71
2022/05/15 00:21:26;;;;;;;6.63;1.83;;;18.10;90.70;;;;;;1989393;28;20198;-71
2022/05/15 00:22:25;;;;;;;7.10;3.30;;;18.10;90.40;;;;;;1989297;28;20575;-72
2022/05/15 00:23:25;;;;;;;5.55;2.08;;;18.20;90.50;;;;;;1989448;28;20178;-71
2022/05/15 00:24:23;;;;;;;6.13;2.05;;;18.10;90.70;;;;;;1989304;28;20167;-71
2022/05/15 00:25:22;;;;;;;6.50;2.90;;;18.20;90.50;;;;;;1989195;28;20202;-71
2022/05/15 00:26:20;;;;;;;4.57;2.37;;;18.10;90.40;;;;;;1989237;28;20179;-71
2022/05/15 00:27:19;;;;;;;7.73;2.10;;;18.10;90.40;;;;;;1989030;28;20578;-72
2022/05/15 00:28:17;;;;;;;7.40;2.70;;;18.10;90.40;;;;;;1989104;28;20213;-70
2022/05/15 00:29:16;;;;;;;4.50;2.27;;;18.10;90.40;;;;;;1989222;28;20205;-71
2022/05/15 00:30:20;;;;;;;4.70;3.00;;;18.10;90.30;;;;;;1989242;28;20174;-71
2022/05/15 00:31:19;;;;;;;4.57;2.22;;;18.10;90.40;;;;;;1996482;28;20208;-72
2022/05/15 00:32:18;;;;;;;9.43;2.77;;;18.10;90.40;;;;;;1996339;28;20235;-72
2022/05/15 00:33:17;;;;;;;8.00;2.67;;;18.10;90.40;;;;;;1989805;28;20524;-72
2022/05/15 00:34:15;;;;;;;5.97;2.85;;;18.10;90.50;;;;;;1989204;28;20175;-72
2022/05/15 00:35:14;;;;;;;4.70;1.87;;;18.10;90.50;;;;;;1988417;28;20305;-71
2022/05/15 00:36:12;;;;;;;6.93;2.57;;;18.10;90.40;;;;;;1988582;28;20166;-71
2022/05/15 00:37:11;;;;;;;7.33;2.23;;;18.10;90.40;;;;;;1988912;28;20437;-72
2022/05/15 00:38:10;;;;;;;6.27;2.30;;;18.10;90.50;;;;;;1989292;28;20167;-72
2022/05/15 00:39:11;;;;;;;4.15;1.83;;;18.10;90.60;;;;;;1989192;28;20166;-71
2022/05/15 00:40:10;;;;;;;8.00;2.15;;;18.10;90.60;;;;;;1989005;28;20517;-72
2022/05/15 00:41:10;;;;;;;10.10;3.40;;;18.10;90.70;;;;;;1989195;28;20186;-71
2022/05/15 00:42:10;;;;;;;6.68;1.90;;;18.10;90.60;;;;;;1989084;28;20241;-71
2022/05/15 00:43:33;;;;;;;4.97;2.00;;;18.10;90.60;;;;;;1989222;28;20172;-71
2022/05/15 00:44:31;;;;;;;6.30;2.30;;;18.10;90.60;;;;;;1989012;28;20170;-71
2022/05/15 00:45:30;;;;;;;4.73;2.20;;;18.10;90.60;;;;;;1989143;28;20525;-71
2022/05/15 00:46:34;;;;;;;7.40;3.07;;;18.10;90.80;;;;;;1989068;28;20607;-72
2022/05/15 00:47:33;;;;;;;6.63;2.13;;;18.10;90.60;;;;;;1989039;28;20261;-71
2022/05/15 00:48:32;;;;;;;10.30;2.27;;;18.10;90.50;;;;;;1989271;28;20174;-72
2022/05/15 00:49:33;;;;;;;4.00;1.98;;;18.10;90.60;;;;;;1989192;28;20573;-71
2022/05/15 00:50:36;;;;;;;2.78;1.80;;;18.10;90.50;;;;;;1988952;28;20182;-72
2022/05/15 00:51:41;;;;;;;5.68;2.33;;;18.10;90.50;;;;;;1989172;28;20248;-71
2022/05/15 00:52:44;;;;;;;9.05;2.35;;;18.10;90.60;;;;;;1996255;28;20200;-71
2022/05/15 00:53:44;;;;;;;6.93;3.00;;;18.10;90.70;;;;;;1996234;28;20201;-71
2022/05/15 00:54:51;;;;;;;4.40;1.83;;;18.10;90.60;;;;;;1989031;28;20183;-71
2022/05/15 00:55:51;;;;;;;3.15;2.20;;;18.10;90.60;;;;;;1989064;28;20158;-71
2022/05/15 00:57:18;;;;;;;8.90;2.80;;;18.00;90.50;;;;;;1989078;28;20199;-72
2022/05/15 00:58:28;;;;;;;3.13;1.63;;;18.10;90.60;;;;;;1989183;28;20155;-71
2022/05/15 00:59:30;;;;;;;5.13;3.20;;;18.00;90.50;;;;;;1989310;28;20591;-71
2022/05/15 01:00:31;;;;;;;6.45;2.17;;;18.10;90.60;;;;;;1989618;28;20256;-71
2022/05/15 01:01:29;;;;;;;4.45;2.30;;;18.00;90.50;;;;;;1992362;28;20213;-72
2022/05/15 01:02:34;;;;;;;5.87;1.80;;;18.00;90.60;;;;;;1996583;28;20196;-71
2022/05/15 01:03:33;;;;;;;2.00;1.70;;;18.00;90.50;;;;;;1997746;28;20155;-71
2022/05/15 01:04:31;;;;;;;5.75;2.55;;;18.00;90.60;;;;;;1995943;28;20209;-71
2022/05/15 01:05:37;;;;;;;6.50;2.03;;;18.00;90.60;;;;;;1990337;28;20170;-71
2022/05/15 01:06:37;;;;;;;5.97;2.10;;;18.10;90.50;;;;;;1990684;28;20155;-71
2022/05/15 01:07:35;;;;;;;4.35;2.47;;;18.10;90.60;;;;;;1990359;28;20189;-71
2022/05/15 01:08:34;;;;;;;3.30;2.13;;;18.00;90.60;;;;;;1990292;28;20183;-71
2022/05/15 01:09:32;;;;;;;8.13;2.47;;;18.00;90.50;;;;;;1989658;28;20547;-71
2022/05/15 01:10:32;;;;;;;3.87;2.07;;;18.00;90.50;;;;;;1989196;28;20178;-71
2022/05/15 01:11:33;;;;;;;5.13;2.38;;;18.00;90.60;;;;;;1989398;28;20256;-71
2022/05/15 01:12:33;;;;;;;3.88;1.95;;;18.00;90.60;;;;;;1989324;28;20181;-71
2022/05/15 01:13:34;;;;;;;6.45;2.72;;;18.00;90.50;;;;;;1989199;28;20182;-71
2022/05/15 01:14:33;;;;;;;5.43;2.78;;;18.00;90.60;;;;;;1989173;28;20598;-71
2022/05/15 01:15:33;;;;;;;3.90;2.13;;;18.00;90.60;;;;;;1989171;28;20217;-70
2022/05/15 01:16:32;;;;;;;4.50;2.25;;;18.00;90.50;;;;;;1989111;28;20459;-71
2022/05/15 01:17:31;;;;;;;3.42;2.30;;;18.00;90.60;;;;;;1989699;28;20269;-71
2022/05/15 01:18:32;;;;;;;7.27;2.30;;;18.00;90.70;;;;;;1989366;28;20178;-71
2022/05/15 01:19:37;;;;;;;5.65;2.67;;;18.00;90.30;;;;;;1989079;28;20531;-71
2022/05/15 01:20:37;;;;;;;7.40;2.00;;;18.00;90.40;;;;;;1989129;28;20210;-71
2022/05/15 01:21:55;;;;;;;9.50;3.40;;;18.00;90.70;;;;;;1988965;28;20257;-73
2022/05/15 01:22:54;;;;;;;4.25;2.33;;;18.00;90.40;;;;;;1989337;28;20174;-73
2022/05/15 01:23:52;;;;;;;7.27;2.60;;;18.00;90.50;;;;;;1989002;28;20589;-72
2022/05/15 01:24:51;;;;;;;7.40;2.00;;;18.00;90.50;;;;;;1988998;28;20174;-72
2022/05/15 01:25:49;;;;;;;5.33;2.10;;;18.00;90.40;;;;;;1988996;28;20166;-71
2022/05/15 01:26:48;;;;;;;3.77;1.90;;;18.00;90.40;;;;;;1988884;28;20206;-71
2022/05/15 01:27:59;;;;;;;3.63;2.07;;;18.00;90.40;;;;;;1989202;28;20178;-72
2022/05/15 01:28:58;;;;;;;5.00;2.30;;;18.00;90.50;;;;;;1989049;28;20241;-72
2022/05/15 01:29:56;;;;;;;5.15;2.08;;;18.00;90.50;;;;;;1989367;28;20237;-71
2022/05/15 01:30:57;;;;;;;3.33;2.10;;;18.00;90.40;;;;;;1988898;28;20245;-71
2022/05/15 01:31:57;;;;;;;4.90;2.00;;;18.00;90.50;;;;;;1988939;28;20174;-73
2022/05/15 01:32:56;;;;;;;5.93;2.20;;;18.00;90.40;;;;;;1989138;28;20201;-71
2022/05/15 01:33:54;;;;;;;5.43;2.27;;;18.00;90.50;;;;;;1989042;28;20460;-71
2022/05/15 01:34:53;;;;;;;3.00;1.80;;;18.00;90.40;;;;;;1988971;28;20418;-71
2022/05/15 01:35:51;;;;;;;6.03;2.63;;;18.00;90.40;;;;;;1989057;28;20174;-70
2022/05/15 01:36:51;;;;;;;4.00;1.70;;;18.00;90.40;;;;;;1988877;28;20684;-71
2022/05/15 01:37:50;;;;;;;5.57;2.20;;;18.00;90.50;;;;;;1988983;28;20167;-71
2022/05/15 01:38:49;;;;;;;7.00;2.13;;;18.00;90.40;;;;;;1988784;28;20265;-71
2022/05/15 01:39:47;;;;;;;4.23;2.00;;;18.00;90.40;;;;;;1989996;28;20257;-71
2022/05/15 01:40:49;;;;;;;2.60;2.17;;;18.00;90.40;;;;;;1990417;28;20405;-71
2022/05/15 01:41:47;;;;;;;4.00;1.60;;;18.00;90.40;;;;;;1990492;28;20661;-71
2022/05/15 01:42:46;;;;;;;7.00;1.77;;;18.00;90.50;;;;;;1990459;28;20410;-73
2022/05/15 01:43:47;;;;;;;6.27;2.23;;;18.00;90.50;;;;;;1990595;28;20206;-72
2022/05/15 01:44:46;;;;;;;5.45;2.00;;;18.00;90.40;;;;;;1990405;28;20190;-73
2022/05/15 01:45:44;;;;;;;3.17;2.17;;;18.00;90.50;;;;;;1990422;28;20516;-71
2022/05/15 01:46:43;;;;;;;6.03;2.20;;;18.00;90.50;;;;;;1990484;28;20444;-72
2022/05/15 01:47:42;;;;;;;4.67;2.37;;;18.00;90.50;;;;;;1990456;28;20406;-71
2022/05/15 01:48:40;;;;;;;4.10;2.50;;;18.00;90.50;;;;;;1990405;28;20564;-71
2022/05/15 01:49:39;;;;;;;5.40;2.20;;;18.00;90.50;;;;;;1990285;28;20185;-71
2022/05/15 01:50:38;;;;;;;4.60;2.10;;;17.90;90.40;;;;;;1990366;28;20190;-71
2022/05/15 01:51:40;;;;;;;5.67;2.77;;;18.00;90.40;;;;;;1990361;28;20190;-72
2022/05/15 01:52:40;;;;;;;5.10;2.40;;;18.00;90.50;;;;;;1990378;28;20610;-71
2022/05/15 01:53:39;;;;;;;9.93;2.20;;;18.00;90.40;;;;;;1990518;28;20645;-73
2022/05/15 01:54:39;;;;;;;3.60;2.28;;;18.00;90.50;;;;;;1990168;28;20167;-71
2022/05/15 01:55:37;;;;;;;5.93;2.35;;;18.00;90.50;;;;;;1990364;28;20262;-71
2022/05/15 01:56:36;;;;;;;5.77;2.20;;;18.00;90.50;;;;;;1990264;28;20185;-71
2022/05/15 01:57:34;;;;;;;3.57;2.10;;;18.00;90.50;;;;;;1990395;28;20166;-70
2022/05/15 01:58:33;;;;;;;3.33;1.77;;;17.90;90.40;;;;;;1990381;28;20456;-71
2022/05/15 01:59:32;;;;;;;4.23;2.67;;;17.90;90.50;;;;;;1990295;28;20181;-71
2022/05/15 02:00:31;;;;;;;7.93;2.70;;;17.90;90.50;;;;;;1990302;28;20441;-72
2022/05/15 02:01:29;;;;;;;4.63;2.13;;;18.00;90.50;;;;;;1990223;28;20197;-71
2022/05/15 02:02:30;;;;;;;4.00;2.10;;;17.90;90.50;;;;;;1990263;28;20177;-71
2022/05/15 02:03:28;;;;;;;2.75;1.85;;;17.90;90.50;;;;;;1990290;28;20182;-70
2022/05/15 02:04:27;;;;;;;5.30;2.07;;;18.00;90.60;;;;;;1990206;28;20174;-71
2022/05/15 02:05:25;;;;;;;3.03;1.63;;;17.90;90.60;;;;;;1990270;28;20529;-71
2022/05/15 02:06:24;;;;;;;4.07;1.80;;;17.90;90.60;;;;;;1990372;28;20186;-71
2022/05/15 02:07:23;;;;;;;3.47;2.00;;;17.90;90.70;;;;;;1990269;28;20210;-71
2022/05/15 02:08:21;;;;;;;2.53;1.93;;;17.90;90.70;;;;;;1990318;28;20170;-71
2022/05/15 02:09:20;;;;;;;4.13;2.00;;;17.90;90.60;;;;;;1990228;28;20174;-71
2022/05/15 02:10:19;;;;;;;2.87;2.10;;;17.90;90.60;;;;;;1990213;28;20178;-70
2022/05/15 02:11:17;;;;;;;3.77;1.93;;;17.90;90.60;;;;;;1990192;28;20178;-71
2022/05/15 02:12:16;;;;;;;2.90;2.30;;;17.90;90.60;;;;;;1990119;28;20198;-71
2022/05/15 02:13:15;;;;;;;4.63;2.00;;;17.90;90.60;;;;;;1990232;28;20217;-71
2022/05/15 02:14:14;;;;;;;4.77;1.97;;;17.90;90.60;;;;;;1990313;28;20217;-72
2022/05/15 02:15:13;;;;;;;6.80;2.00;;;17.90;90.60;;;;;;1990097;28;20461;-71
2022/05/15 02:16:12;;;;;;;5.45;1.80;;;17.90;90.60;;;;;;1990022;28;20174;-71
2022/05/15 02:17:10;;;;;;;5.60;2.45;;;17.90;90.60;;;;;;1990318;28;20684;-71
2022/05/15 02:18:09;;;;;;;9.73;2.30;;;17.90;90.60;;;;;;1990102;28;20169;-71
2022/05/15 02:19:07;;;;;;;3.47;2.40;;;17.90;90.60;;;;;;1989922;28;20294;-72
2022/05/15 02:20:10;;;;;;;5.67;2.07;;;17.90;90.70;;;;;;1990336;28;20163;-72
2022/05/15 02:21:09;;;;;;;3.47;2.22;;;17.90;90.60;;;;;;1990093;28;20166;-72
2022/05/15 02:22:07;;;;;;;6.60;2.57;;;17.90;90.60;;;;;;1990040;28;20193;-71
2022/05/15 02:23:06;;;;;;;6.47;2.47;;;17.90;90.60;;;;;;1989552;28;20186;-72
2022/05/15 02:24:06;;;;;;;6.70;2.77;;;17.90;90.60;;;;;;1989617;28;20170;-71
2022/05/15 02:25:07;;;;;;;4.60;2.22;;;17.90;90.60;;;;;;1990202;28;20418;-72
2022/05/15 02:26:05;;;;;;;4.38;2.15;;;17.90;90.50;;;;;;1989875;28;20179;-72
2022/05/15 02:27:04;;;;;;;3.80;2.20;;;17.90;90.60;;;;;;1990026;28;20198;-72
2022/05/15 02:28:03;;;;;;;3.80;2.07;;;17.90;90.60;;;;;;1990053;28;20209;-72
2022/05/15 02:29:03;;;;;;;4.05;1.98;;;17.90;90.60;;;;;;1990147;28;20967;-71
2022/05/15 02:30:04;;;;;;;2.25;1.65;;;17.90;90.80;;;;;;1989961;28;20599;-71
2022/05/15 02:31:03;;;;;;;3.95;1.92;;;17.90;90.80;;;;;;1997052;28;20178;-71
2022/05/15 02:32:01;;;;;;;4.17;2.10;;;17.90;90.80;;;;;;1997249;28;20265;-71
2022/05/15 02:33:00;;;;;;;2.67;1.97;;;17.90;90.80;;;;;;1990427;28;20214;-71
2022/05/15 02:34:00;;;;;;;6.00;2.40;;;17.90;90.80;;;;;;1990091;28;20548;-72
2022/05/15 02:34:59;;;;;;;4.00;2.37;;;17.90;90.90;;;;;;1989877;28;20210;-71
2022/05/15 02:35:58;;;;;;;3.20;2.30;;;17.90;90.80;;;;;;1989997;28;20421;-71
2022/05/15 02:36:56;;;;;;;3.53;1.83;;;17.90;90.70;;;;;;1989957;28;20199;-70
2022/05/15 02:37:55;;;;;;;5.60;2.40;;;17.90;90.80;;;;;;1989931;28;20178;-71
2022/05/15 02:38:53;;;;;;;3.70;1.83;;;17.90;90.90;;;;;;1989982;28;20182;-73
2022/05/15 02:39:52;;;;;;;7.73;1.90;;;17.90;90.90;;;;;;1989866;28;20170;-71
2022/05/15 02:40:50;;;;;;;8.53;2.50;;;17.90;90.80;;;;;;1989981;28;20174;-73
2022/05/15 02:41:49;;;;;;;3.50;2.10;;;17.90;90.70;;;;;;1990132;28;20233;-71
2022/05/15 02:42:48;;;;;;;6.50;2.20;;;17.90;90.70;;;;;;1990101;28;20181;-71
2022/05/15 02:43:46;;;;;;;3.60;2.10;;;17.90;90.80;;;;;;1989454;28;20649;-73
2022/05/15 02:44:45;;;;;;;4.70;1.80;;;17.90;90.70;;;;;;1989549;28;20210;-72
2022/05/15 02:45:43;;;;;;;5.13;2.13;;;17.90;90.70;;;;;;1990091;28;20581;-71
2022/05/15 02:46:42;;;;;;;4.50;2.40;;;17.90;90.70;;;;;;1990137;28;20201;-72
2022/05/15 02:47:42;;;;;;;5.77;2.80;;;17.90;90.80;;;;;;1989903;28;20186;-72
2022/05/15 02:51:16;;;;;;;2.33;1.90;;;17.80;90.80;;;;;;1988950;28;20246;-71
2022/05/15 02:52:15;;;;;;;4.23;2.30;;;17.90;91.00;;;;;;1989881;28;20170;-71
2022/05/15 02:53:13;;;;;;;3.37;1.83;;;17.90;90.90;;;;;;1990046;28;20645;-71
2022/05/15 02:54:12;;;;;;;5.03;1.60;;;17.90;90.80;;;;;;1989869;28;20460;-71
2022/05/15 02:55:11;;;;;;;3.30;1.60;;;17.90;90.90;;;;;;1989851;28;20209;-71
2022/05/15 02:56:19;;;;;;;5.15;2.08;;;17.90;90.80;;;;;;1989873;28;20308;-71
2022/05/15 02:57:17;;;;;;;3.35;1.95;;;17.80;90.70;;;;;;1996901;28;20252;-71
2022/05/15 02:58:16;;;;;;;3.43;2.47;;;17.90;90.70;;;;;;1989120;28;20202;-71
2022/05/15 02:59:15;;;;;;;6.00;2.00;;;17.80;90.80;;;;;;1989329;28;20178;-71
2022/05/15 03:00:14;;;;;;;3.30;2.63;;;17.80;90.80;;;;;;1989842;28;20162;-71
2022/05/15 03:01:14;;;;;;;3.13;1.97;;;17.80;90.80;;;;;;1996883;28;20174;-70
2022/05/15 03:02:12;;;;;;;3.47;2.00;;;17.80;90.80;;;;;;1997065;28;20481;-72
2022/05/15 03:03:12;;;;;;;2.90;1.70;;;17.80;90.80;;;;;;1990232;28;20912;-70
2022/05/15 03:04:11;;;;;;;6.90;2.15;;;17.80;90.90;;;;;;1989088;28;20578;-71
2022/05/15 03:05:13;;;;;;;3.70;1.60;;;17.80;90.80;;;;;;1989228;28;20205;-70
2022/05/15 03:06:12;;;;;;;3.97;1.80;;;17.80;90.80;;;;;;1996773;28;20272;-71
2022/05/15 03:07:10;;;;;;;4.57;1.85;;;17.80;90.80;;;;;;1996979;28;20939;-72
2022/05/15 03:08:09;;;;;;;6.67;1.70;;;17.80;90.80;;;;;;1990181;28;20174;-71
2022/05/15 03:09:07;;;;;;;3.93;1.93;;;17.80;90.70;;;;;;1989900;28;20656;-71
2022/05/15 03:10:07;;;;;;;4.20;2.23;;;17.80;90.70;;;;;;1989683;28;20209;-72
2022/05/15 03:11:05;;;;;;;3.47;1.95;;;17.80;90.60;;;;;;1989669;28;20638;-71
2022/05/15 03:12:04;;;;;;;2.17;1.87;;;17.80;90.70;;;;;;1989730;28;20205;-71
2022/05/15 03:13:03;;;;;;;3.58;2.13;;;17.80;90.60;;;;;;1989684;28;20587;-70
2022/05/15 03:14:01;;;;;;;3.30;1.87;;;17.80;90.60;;;;;;1989736;28;20187;-71
2022/05/15 03:15:00;;;;;;;3.80;2.03;;;17.80;90.60;;;;;;1989743;28;20665;-71
2022/05/15 03:15:58;;;;;;;6.60;1.87;;;17.80;90.50;;;;;;1989161;28;20210;-70
2022/05/15 03:16:57;;;;;;;4.77;2.33;;;17.80;90.60;;;;;;1989268;28;20269;-71
2022/05/15 03:17:56;;;;;;;1.93;1.53;;;17.80;90.50;;;;;;1989650;28;20503;-71
2022/05/15 03:18:55;;;;;;;2.73;1.70;;;17.80;90.50;;;;;;1989566;28;20414;-70
2022/05/15 03:19:53;;;;;;;2.93;2.20;;;17.80;90.60;;;;;;1989192;28;20265;-72
2022/05/15 03:20:52;;;;;;;3.67;2.00;;;17.80;90.70;;;;;;1989128;28;20589;-71
2022/05/15 03:21:51;;;;;;;5.10;2.00;;;17.80;90.60;;;;;;1989592;28;20228;-72
2022/05/15 03:22:49;;;;;;;3.97;1.90;;;17.80;90.60;;;;;;1989840;28;20186;-71
2022/05/15 03:23:47;;;;;;;5.17;2.10;;;17.80;90.50;;;;;;1989857;28;20433;-73
2022/05/15 03:24:46;;;;;;;7.50;1.70;;;17.80;90.60;;;;;;1988891;28;20598;-71
2022/05/15 03:25:44;;;;;;;2.93;2.20;;;17.80;90.60;;;;;;1988997;28;20554;-71
2022/05/15 03:26:45;;;;;;;2.30;1.90;;;17.80;90.60;;;;;;1989603;28;20222;-71
2022/05/15 03:27:44;;;;;;;4.47;2.20;;;17.80;90.60;;;;;;1989533;28;20241;-71
2022/05/15 03:28:43;;;;;;;2.50;2.03;;;17.80;90.60;;;;;;1989780;28;20237;-71
2022/05/15 03:29:42;;;;;;;2.38;1.50;;;17.80;90.60;;;;;;1989154;28;20180;-71
2022/05/15 03:30:42;;;;;;;3.20;1.93;;;17.80;90.70;;;;;;1989040;28;20174;-71
2022/05/15 03:31:41;;;;;;;4.43;2.42;;;17.80;90.70;;;;;;1996621;28;20170;-71
2022/05/15 03:32:39;;;;;;;2.20;1.53;;;17.80;90.60;;;;;;1996926;28;20225;-71
2022/05/15 03:33:38;;;;;;;2.57;1.60;;;17.80;90.80;;;;;;1990190;28;20186;-72
2022/05/15 03:34:36;;;;;;;4.50;2.37;;;17.80;90.80;;;;;;1989744;28;20233;-72
2022/05/15 03:35:37;;;;;;;6.20;2.20;;;17.80;90.70;;;;;;1988934;28;20209;-71
2022/05/15 03:36:37;;;;;;;2.20;1.55;;;17.80;90.70;;;;;;1988820;28;20621;-71
2022/05/15 03:37:36;;;;;;;6.40;1.77;;;17.80;90.70;;;;;;1989701;28;20179;-70
2022/05/15 03:38:34;;;;;;;4.60;2.10;;;17.80;90.70;;;;;;1989515;28;20604;-71
2022/05/15 03:39:32;;;;;;;5.17;2.27;;;17.80;90.70;;;;;;1989451;28;20471;-72
2022/05/15 03:40:33;;;;;;;3.80;2.20;;;17.80;90.60;;;;;;1989431;28;20193;-72
2022/05/15 03:41:31;;;;;;;4.25;1.80;;;17.80;90.60;;;;;;1989477;28;20240;-72
2022/05/15 03:42:31;;;;;;;2.73;1.47;;;17.80;90.70;;;;;;1989477;28;20542;-72
2022/05/15 03:43:29;;;;;;;4.20;2.13;;;17.80;90.60;;;;;;1989546;28;20173;-72
2022/05/15 03:44:28;;;;;;;4.07;2.60;;;17.80;90.50;;;;;;1989481;28;20641;-71
2022/05/15 03:45:27;;;;;;;2.40;1.77;;;17.80;90.60;;;;;;1989421;28;20213;-72
2022/05/15 03:46:25;;;;;;;4.93;2.13;;;17.80;90.60;;;;;;1989544;28;20686;-72
2022/05/15 03:47:24;;;;;;;2.67;2.10;;;17.80;90.60;;;;;;1990064;28;20287;-71
2022/05/15 03:48:22;;;;;;;3.83;1.73;;;17.80;90.40;;;;;;1994633;28;20186;-72
2022/05/15 03:49:21;;;;;;;3.30;2.10;;;17.80;90.40;;;;;;1995459;28;20197;-72
2022/05/15 03:50:22;;;;;;;3.23;2.20;;;17.80;90.30;;;;;;1995355;28;20217;-72
2022/05/15 03:51:20;;;;;;;4.07;1.90;;;17.80;90.30;;;;;;1994852;28;20209;-72
2022/05/15 03:52:19;;;;;;;3.23;1.80;;;17.80;90.40;;;;;;1989832;28;20194;-71
2022/05/15 03:53:17;;;;;;;2.83;1.80;;;17.80;90.40;;;;;;1989649;28;20225;-71
2022/05/15 03:54:16;;;;;;;2.40;1.73;;;17.80;90.30;;;;;;1996590;28;20318;-71
2022/05/15 03:55:15;;;;;;;4.67;2.23;;;17.80;90.40;;;;;;1997069;28;20241;-71
2022/05/15 03:56:14;;;;;;;2.90;1.80;;;17.70;90.40;;;;;;1989913;28;20672;-71
2022/05/15 03:57:13;;;;;;;2.73;2.00;;;17.70;90.40;;;;;;1989430;28;20194;-71
2022/05/15 03:58:13;;;;;;;6.63;2.67;;;17.80;90.40;;;;;;1989499;28;20626;-72
2022/05/15 03:59:12;;;;;;;5.68;2.08;;;17.80;90.30;;;;;;1989479;28;20578;-71
2022/05/15 04:00:15;;;;;;;5.40;2.83;;;17.80;90.30;;;;;;1989460;28;20324;-72
2022/05/15 04:01:14;;;;;;;4.85;2.83;;;17.80;90.30;;;;;;1989390;28;20258;-71
2022/05/15 04:02:12;;;;;;;3.93;1.80;;;17.80;90.30;;;;;;1989087;28;20561;-71
2022/05/15 04:03:10;;;;;;;6.23;2.03;;;17.80;90.30;;;;;;1989383;28;20225;-71
2022/05/15 04:04:10;;;;;;;3.10;2.00;;;17.80;90.40;;;;;;1989322;28;20167;-71
2022/05/15 04:05:10;;;;;;;4.00;2.10;;;17.80;90.40;;;;;;1989367;28;20170;-71
2022/05/15 04:06:08;;;;;;;5.03;2.08;;;17.80;90.40;;;;;;1989513;28;20185;-71
2022/05/15 04:07:07;;;;;;;2.00;1.63;;;17.80;90.40;;;;;;1989484;28;20197;-71
2022/05/15 04:08:06;;;;;;;4.53;2.70;;;17.80;90.30;;;;;;1989388;28;20179;-71
2022/05/15 04:09:05;;;;;;;4.10;2.20;;;17.70;90.40;;;;;;1989386;28;20171;-71
2022/05/15 04:10:04;;;;;;;6.28;2.30;;;17.80;90.40;;;;;;1989331;28;20634;-71
2022/05/15 04:11:04;;;;;;;2.90;1.40;;;17.80;90.40;;;;;;1989367;28;20174;-71
2022/05/15 04:12:03;;;;;;;4.05;1.60;;;17.80;90.40;;;;;;1989338;28;20214;-71
2022/05/15 04:13:01;;;;;;;6.30;1.57;;;17.70;90.30;;;;;;1989211;28;20190;-71
2022/05/15 04:14:00;;;;;;;3.30;1.90;;;17.70;90.30;;;;;;1989301;28;20587;-71
2022/05/15 04:15:00;;;;;;;5.83;2.20;;;17.80;90.40;;;;;;1989341;28;20193;-71
2022/05/15 04:15:58;;;;;;;3.78;2.15;;;17.80;90.30;;;;;;1989243;28;20892;-71
2022/05/15 04:16:57;;;;;;;5.20;2.70;;;17.70;90.30;;;;;;1989265;28;20285;-72
2022/05/15 04:17:56;;;;;;;4.23;2.33;;;17.80;90.40;;;;;;1989294;28;20250;-71
2022/05/15 04:18:55;;;;;;;3.58;2.00;;;17.80;90.50;;;;;;1989156;28;20266;-72
2022/05/15 04:19:55;;;;;;;4.63;2.27;;;17.80;90.40;;;;;;1989294;28;20159;-71
2022/05/15 04:20:53;;;;;;;3.17;1.90;;;17.80;90.40;;;;;;1989301;28;20595;-71
2022/05/15 04:21:52;;;;;;;5.10;2.40;;;17.90;90.40;;;;;;1989267;28;20206;-71
2022/05/15 04:22:51;;;;;;;3.70;2.03;;;17.80;90.40;;;;;;1989253;28;20174;-72
2022/05/15 04:23:49;;;;;;;3.00;2.23;;;17.80;90.40;;;;;;1988626;28;20410;-72
2022/05/15 04:24:48;;;;;;;3.23;2.40;;;17.80;90.40;;;;;;1988656;28;20170;-71
2022/05/15 04:25:46;;;;;;;5.93;2.93;;;17.80;90.40;;;;;;1989249;28;20182;-72
2022/05/15 04:26:49;;;;;;;2.87;1.60;;;17.70;90.40;;;;;;1989275;28;20581;-72
2022/05/15 04:27:48;;;;;;;3.95;2.45;;;17.80;90.50;;;;;;1989164;28;20178;-71
2022/05/15 04:28:48;;;;;;;4.63;2.35;;;17.80;90.50;;;;;;1989372;28;20209;-72
2022/05/15 04:29:47;;;;;;;9.35;2.03;;;17.80;90.50;;;;;;1989102;28;20181;-71
2022/05/15 04:30:45;;;;;;;3.20;1.77;;;17.80;90.40;;;;;;1988513;28;20301;-72
2022/05/15 04:31:44;;;;;;;4.13;2.20;;;17.70;90.40;;;;;;1988798;28;20202;-72
2022/05/15 04:32:42;;;;;;;2.20;1.70;;;17.80;90.50;;;;;;1989181;28;20170;-72
2022/05/15 04:33:41;;;;;;;3.10;2.00;;;17.80;90.50;;;;;;1989263;28;20652;-72
2022/05/15 04:34:39;;;;;;;3.67;2.10;;;17.80;90.50;;;;;;1989236;28;20177;-72
2022/05/15 04:35:38;;;;;;;3.07;1.83;;;17.80;90.50;;;;;;1989103;28;20444;-72
2022/05/15 04:36:36;;;;;;;2.43;2.03;;;17.70;90.40;;;;;;1989193;28;20185;-72
2022/05/15 04:37:35;;;;;;;2.10;1.77;;;17.80;90.40;;;;;;1989373;28;20288;-72
2022/05/15 04:38:34;;;;;;;4.20;2.40;;;17.70;90.30;;;;;;1989300;28;20484;-72
2022/05/15 04:39:34;;;;;;;2.33;1.50;;;17.70;90.30;;;;;;1989625;28;20178;-72
2022/05/15 04:40:33;;;;;;;3.90;1.95;;;17.80;90.30;;;;;;1989025;28;20646;-72
2022/05/15 04:41:32;;;;;;;5.70;2.53;;;17.70;90.20;;;;;;1988519;28;20183;-72
2022/05/15 04:42:31;;;;;;;4.63;1.95;;;17.70;90.20;;;;;;1988546;28;20226;-72
2022/05/15 04:43:29;;;;;;;2.90;1.53;;;17.80;90.20;;;;;;1989249;28;20175;-72
2022/05/15 04:44:27;;;;;;;4.40;2.00;;;17.70;90.20;;;;;;1989220;28;20182;-72
2022/05/15 04:45:26;;;;;;;5.80;1.97;;;17.80;90.20;;;;;;1989156;28;20217;-72
2022/05/15 04:46:29;;;;;;;4.20;1.77;;;17.80;90.30;;;;;;1989222;28;20181;-72
2022/05/15 04:47:27;;;;;;;3.55;1.90;;;17.70;90.20;;;;;;1989070;28;20166;-72
2022/05/15 04:48:26;;;;;;;3.20;1.60;;;17.80;90.20;;;;;;1989071;28;20188;-71
2022/05/15 04:49:24;;;;;;;4.23;2.03;;;17.80;90.20;;;;;;1989239;28;20197;-72
2022/05/15 04:50:23;;;;;;;3.10;2.03;;;17.80;90.20;;;;;;1989096;28;20230;-72
2022/05/15 04:51:22;;;;;;;4.70;2.77;;;17.80;90.20;;;;;;1989150;28;20182;-72
2022/05/15 04:52:20;;;;;;;3.07;1.90;;;17.80;90.20;;;;;;1989144;28;20186;-72
2022/05/15 04:53:20;;;;;;;3.50;2.20;;;17.80;90.20;;;;;;1989045;28;20630;-72
2022/05/15 04:54:18;;;;;;;4.10;2.30;;;17.80;90.20;;;;;;1988324;28;20277;-72
2022/05/15 04:55:18;;;;;;;6.33;2.10;;;17.80;90.30;;;;;;1988351;28;20477;-72
2022/05/15 04:56:17;;;;;;;4.63;2.10;;;17.80;90.30;;;;;;1995967;28;20260;-71
2022/05/15 04:57:16;;;;;;;3.03;1.90;;;17.80;90.10;;;;;;1989408;28;20198;-71
2022/05/15 04:58:14;;;;;;;4.33;2.13;;;17.80;90.10;;;;;;1989059;28;20519;-70
2022/05/15 04:59:13;;;;;;;3.80;2.20;;;17.80;90.20;;;;;;1989201;28;20158;-71
2022/05/15 05:00:17;;;;;;;6.43;1.77;;;17.80;90.20;;;;;;1989152;28;20181;-71
2022/05/15 05:01:15;;;;;;;4.55;2.75;;;17.80;90.30;;;;;;1989262;28;20159;-71
2022/05/15 05:02:14;;;;;;;4.87;2.10;;;17.80;90.20;;;;;;1989058;28;20508;-71
2022/05/15 05:03:12;;;;;;;5.70;1.87;;;17.80;90.10;;;;;;1989256;28;20276;-71
2022/05/15 05:04:11;;;;;;;3.50;2.10;;;17.80;90.10;;;;;;1988394;28;20194;-70
2022/05/15 05:05:10;;;;;;;3.20;2.00;;;17.80;90.20;;;;;;1988327;28;20171;-71
2022/05/15 05:06:08;;;;;;;4.30;2.00;;;17.80;90.20;;;;;;1989209;28;20233;-72
2022/05/15 05:07:08;;;;;;;2.80;1.93;;;17.80;90.20;;;;;;1996008;28;20618;-71
2022/05/15 05:08:09;;;;;;;2.25;1.75;;;17.80;90.10;;;;;;1996346;28;20170;-71
2022/05/15 05:09:08;;;;;;;3.80;2.30;;;17.80;90.10;;;;;;1989095;28;20182;-71
2022/05/15 05:10:09;;;;;;;5.90;2.00;;;17.80;90.20;;;;;;1989036;28;20634;-71
2022/05/15 05:11:07;;;;;;;3.22;2.10;;;17.80;90.10;;;;;;1989090;28;20181;-72
2022/05/15 05:12:07;;;;;;;6.53;2.50;;;17.80;90.10;;;;;;1989000;28;20178;-71